createdAt,value
2023-03-11T00:00:50.644Z,4.95
2023-03-11T00:03:23.246Z,4.85
2023-03-11T00:05:52.865Z,4.72
2023-03-11T00:08:23.796Z,4.58
2023-03-11T00:10:55.159Z,4.47
2023-03-11T00:13:25.894Z,4.36
2023-03-11T00:15:56.309Z,4.34
2023-03-11T00:18:27.160Z,4.32
2023-03-11T00:20:57.200Z,4.23
2023-03-11T00:23:26.502Z,4.19
2023-03-11T00:25:54.996Z,4.17
2023-03-11T00:28:26.771Z,4.13
2023-03-11T00:30:55.594Z,4.08
2023-03-11T00:33:24.362Z,4.08
2023-03-11T00:35:52.982Z,4.02
2023-03-11T00:38:22.602Z,3.98
2023-03-11T00:40:51.659Z,3.97
2023-03-11T00:43:20.099Z,4.03
2023-03-11T00:45:51.191Z,4.01
2023-03-11T00:48:21.556Z,3.98
2023-03-11T00:50:50.512Z,4.02
2023-03-11T00:53:19.939Z,4.01
2023-03-11T00:55:49.601Z,4.00
2023-03-11T00:58:19.296Z,4.03
2023-03-11T01:00:47.633Z,4.14
2023-03-11T01:03:18.940Z,4.24
2023-03-11T01:05:48.006Z,4.28
2023-03-11T01:08:21.804Z,4.25
2023-03-11T01:10:51.859Z,4.27
2023-03-11T01:13:20.886Z,4.26
2023-03-11T01:15:49.322Z,4.25
2023-03-11T01:18:20.384Z,4.32
2023-03-11T01:20:50.458Z,4.29
2023-03-11T01:23:20.352Z,4.28
2023-03-11T01:25:52.641Z,4.23
2023-03-11T01:28:21.102Z,4.23
2023-03-11T01:30:49.620Z,4.28
2023-03-11T01:33:20.820Z,4.23
2023-03-11T01:35:49.393Z,4.22
2023-03-11T01:38:18.209Z,4.22
2023-03-11T01:40:49.024Z,4.25
2023-03-11T01:43:39.688Z,4.25
2023-03-11T01:46:12.804Z,4.22
2023-03-11T01:48:47.545Z,4.25
2023-03-11T01:51:18.560Z,4.22
2023-03-11T01:53:47.092Z,4.18
2023-03-11T01:56:15.745Z,4.24
2023-03-11T01:58:50.055Z,4.19
2023-03-11T02:01:18.604Z,4.16
2023-03-11T02:03:49.714Z,4.18
2023-03-11T02:06:21.625Z,4.08
2023-03-11T02:08:50.890Z,4.04
2023-03-11T02:11:21.757Z,3.95
2023-03-11T02:13:50.714Z,3.90
2023-03-11T02:16:19.561Z,3.86
2023-03-11T02:18:49.551Z,3.82
2023-03-11T02:21:24.539Z,3.87
2023-03-11T02:24:00.862Z,3.91
2023-03-11T02:26:36.039Z,3.90
2023-03-11T02:29:08.776Z,3.93
2023-03-11T02:31:41.174Z,3.94
2023-03-11T02:34:17.180Z,3.92
2023-03-11T02:36:45.668Z,3.91
2023-03-11T02:39:14.059Z,3.92
2023-03-11T02:41:47.040Z,3.90
2023-03-11T02:44:17.675Z,3.80
2023-03-11T02:46:46.812Z,3.77
2023-03-11T02:49:16.521Z,3.74
2023-03-11T02:51:44.879Z,3.72
2023-03-11T02:54:13.311Z,3.75
2023-03-11T02:56:41.642Z,3.77
2023-03-11T02:59:10.003Z,3.79
2023-03-11T03:01:39.780Z,3.78
2023-03-11T03:04:08.450Z,3.83
2023-03-11T03:06:36.813Z,3.81
2023-03-11T03:09:05.616Z,3.82
2023-03-11T03:11:34.225Z,3.83
2023-03-11T03:14:02.609Z,3.83
2023-03-11T03:16:34.126Z,3.76
2023-03-11T03:19:04.449Z,3.80
2023-03-11T03:21:32.809Z,3.86
2023-03-11T03:24:01.225Z,3.78
2023-03-11T03:26:29.583Z,3.78
2023-03-11T03:28:57.977Z,3.80
2023-03-11T03:31:26.540Z,3.77
2023-03-11T03:33:54.891Z,3.78
2023-03-11T03:36:25.314Z,3.75
2023-03-11T03:38:55.459Z,3.78
2023-03-11T03:41:24.149Z,3.79
2023-03-11T03:43:52.695Z,3.78
2023-03-11T03:46:21.078Z,3.71
2023-03-11T03:48:49.550Z,3.65
2023-03-11T03:51:18.747Z,3.68
2023-03-11T03:53:48.677Z,3.74
2023-03-11T03:56:19.048Z,3.65
2023-03-11T03:58:47.390Z,3.65
2023-03-11T04:01:15.802Z,3.71
2023-03-11T04:03:44.203Z,3.61
2023-03-11T04:06:18.207Z,3.61
2023-03-11T04:08:47.913Z,3.60
2023-03-11T04:11:16.231Z,3.55
2023-03-11T04:13:45.321Z,3.56
2023-03-11T04:16:18.118Z,3.57
2023-03-11T04:18:46.588Z,3.55
2023-03-11T04:21:15.154Z,3.50
2023-03-11T04:23:43.548Z,3.44
2023-03-11T04:26:13.644Z,3.43
2023-03-11T04:28:42.079Z,3.44
2023-03-11T04:31:11.626Z,3.43
2023-03-11T04:33:40.042Z,3.45
2023-03-11T04:36:09.608Z,3.50
2023-03-11T04:38:38.014Z,3.54
2023-03-11T04:41:10.519Z,3.58
2023-03-11T04:43:40.233Z,3.55
2023-03-11T04:46:08.704Z,3.56
2023-03-11T04:48:37.149Z,3.59
2023-03-11T04:51:05.795Z,3.61
2023-03-11T04:53:34.257Z,3.58
2023-03-11T04:56:02.729Z,3.49
2023-03-11T04:58:31.066Z,3.55
2023-03-11T05:01:00.818Z,3.57
2023-03-11T05:03:29.212Z,3.58
2023-03-11T05:05:57.676Z,3.61
2023-03-11T05:08:26.040Z,3.63
2023-03-11T05:10:54.876Z,3.57
2023-03-11T05:13:23.632Z,3.58
2023-03-11T05:15:52.023Z,3.54
2023-03-11T05:18:21.903Z,3.53
2023-03-11T05:20:50.199Z,3.54
2023-03-11T05:23:18.561Z,3.53
2023-03-11T05:25:46.992Z,3.54
2023-03-11T05:28:15.363Z,3.51
2023-03-11T05:30:43.681Z,3.50
2023-03-11T05:33:12.085Z,3.49
2023-03-11T05:35:42.805Z,3.50
2023-03-11T05:38:13.820Z,3.43
2023-03-11T05:40:42.284Z,3.42
2023-03-11T05:43:10.924Z,3.43
2023-03-11T05:45:39.405Z,3.45
2023-03-11T05:48:07.991Z,3.41
2023-03-11T05:50:36.548Z,3.40
2023-03-11T05:53:06.323Z,3.41
2023-03-11T05:55:34.705Z,3.45
2023-03-11T05:58:03.169Z,3.52
2023-03-11T06:00:31.917Z,3.57
2023-03-11T06:03:00.247Z,3.54
2023-03-11T06:05:28.584Z,3.53
2023-03-11T06:07:56.964Z,3.50
2023-03-11T06:10:26.681Z,3.51
2023-03-11T06:12:55.044Z,3.53
2023-03-11T06:15:23.855Z,3.51
2023-03-11T06:17:52.162Z,3.42
2023-03-11T06:20:20.980Z,3.34
2023-03-11T06:22:49.633Z,3.27
2023-03-11T06:25:18.285Z,3.26
2023-03-11T06:27:53.332Z,3.28
2023-03-11T06:30:22.005Z,3.28
2023-03-11T06:32:55.714Z,3.26
2023-03-11T06:35:24.240Z,3.28
2023-03-11T06:37:54.067Z,3.32
2023-03-11T06:40:22.547Z,3.29
2023-03-11T06:42:52.419Z,3.23
2023-03-11T06:45:20.926Z,3.19
2023-03-11T06:47:49.382Z,3.18
2023-03-11T06:50:18.317Z,3.20
2023-03-11T06:52:46.678Z,3.22
2023-03-11T06:55:15.370Z,3.19
2023-03-11T06:57:44.829Z,3.18
2023-03-11T07:00:16.418Z,3.19
2023-03-11T07:02:44.792Z,3.14
2023-03-11T07:05:14.943Z,3.21
2023-03-11T07:07:43.401Z,3.33
2023-03-11T07:10:13.292Z,3.38
2023-03-11T07:12:41.624Z,3.30
2023-03-11T07:15:11.181Z,3.24
2023-03-11T07:17:46.249Z,3.22
2023-03-11T07:20:14.754Z,3.24
2023-03-11T07:22:43.125Z,3.29
2023-03-11T07:25:11.520Z,3.31
2023-03-11T07:27:39.904Z,3.39
2023-03-11T07:30:09.715Z,3.43
2023-03-11T07:32:38.217Z,3.49
2023-03-11T07:35:17.702Z,3.47
2023-03-11T07:37:46.411Z,3.48
2023-03-11T07:40:15.171Z,3.45
2023-03-11T07:42:43.619Z,3.48
2023-03-11T07:45:12.634Z,3.54
2023-03-11T07:47:40.995Z,3.54
2023-03-11T07:50:10.431Z,3.55
2023-03-11T07:52:40.960Z,3.51
2023-03-11T07:55:10.037Z,3.49
2023-03-11T07:57:38.405Z,3.46
2023-03-11T08:00:07.821Z,3.45
2023-03-11T08:02:36.236Z,3.48
2023-03-11T08:05:04.841Z,3.48
2023-03-11T08:07:35.030Z,3.43
2023-03-11T08:10:05.541Z,3.53
2023-03-11T08:12:42.652Z,3.70
2023-03-11T08:15:12.164Z,3.77
2023-03-11T08:17:40.474Z,3.84
2023-03-11T08:20:11.244Z,3.78
2023-03-11T08:22:55.541Z,3.71
2023-03-11T08:25:27.357Z,3.61
2023-03-11T08:27:55.780Z,3.54
2023-03-11T08:30:24.904Z,3.57
2023-03-11T08:32:53.435Z,3.50
2023-03-11T08:35:24.283Z,3.46
2023-03-11T08:37:52.933Z,3.46
2023-03-11T08:40:24.170Z,3.54
2023-03-11T08:42:56.139Z,3.57
2023-03-11T08:45:24.892Z,3.63
2023-03-11T08:47:53.329Z,3.79
2023-03-11T08:50:21.802Z,3.81
2023-03-11T08:52:50.189Z,3.79
2023-03-11T08:55:25.039Z,3.71
2023-03-11T08:57:54.998Z,3.63
2023-03-11T09:00:24.363Z,3.66
2023-03-11T09:02:54.057Z,3.68
2023-03-11T09:05:22.632Z,3.78
2023-03-11T09:07:51.446Z,3.90
2023-03-11T09:10:20.087Z,3.94
2023-03-11T09:12:48.486Z,3.99
2023-03-11T09:15:18.540Z,4.04
2023-03-11T09:17:46.894Z,4.09
2023-03-11T09:20:17.004Z,4.05
2023-03-11T09:22:45.460Z,3.99
2023-03-11T09:25:14.260Z,4.00
2023-03-11T09:27:42.716Z,3.99
2023-03-11T09:30:12.363Z,3.96
2023-03-11T09:32:42.206Z,3.98
2023-03-11T09:35:10.849Z,3.97
2023-03-11T09:37:41.720Z,4.04
2023-03-11T09:40:16.410Z,4.14
2023-03-11T09:42:50.400Z,4.25
2023-03-11T09:45:22.271Z,4.30
2023-03-11T09:48:05.950Z,4.29
2023-03-11T09:50:40.551Z,4.39
2023-03-11T09:53:20.746Z,4.43
2023-03-11T09:55:51.642Z,4.41
2023-03-11T09:58:29.376Z,4.50
2023-03-11T10:00:58.324Z,4.59
2023-03-11T10:03:32.840Z,4.69
2023-03-11T10:06:16.232Z,4.70
2023-03-11T10:08:49.943Z,4.70
2023-03-11T10:11:34.237Z,4.65
2023-03-11T10:14:13.825Z,4.56
2023-03-11T10:16:52.673Z,4.65
2023-03-11T10:19:33.819Z,4.76
2023-03-11T10:22:09.614Z,4.78
2023-03-11T10:24:50.675Z,4.80
2023-03-11T10:27:24.418Z,4.81
2023-03-11T10:30:01.427Z,4.84
2023-03-11T10:32:38.309Z,4.91
2023-03-11T10:35:18.137Z,4.95
2023-03-11T10:37:52.939Z,5.05
2023-03-11T10:40:28.178Z,4.96
2023-03-11T10:42:59.368Z,4.86
2023-03-11T10:45:30.105Z,4.76
2023-03-11T10:47:58.943Z,4.64
2023-03-11T10:50:29.202Z,4.65
2023-03-11T10:53:09.353Z,4.73
2023-03-11T10:55:51.806Z,4.80
2023-03-11T10:58:23.732Z,4.89
2023-03-11T11:01:03.320Z,4.99
2023-03-11T11:03:33.847Z,4.96
2023-03-11T11:06:06.000Z,4.96
2023-03-11T11:08:35.541Z,4.99
2023-03-11T11:11:05.809Z,4.96
2023-03-11T11:13:35.671Z,4.87
2023-03-11T11:16:20.929Z,4.91
2023-03-11T11:18:52.252Z,4.91
2023-03-11T11:21:32.172Z,4.89
2023-03-11T11:24:22.138Z,4.93
2023-03-11T11:27:12.658Z,5.11
2023-03-11T11:29:45.530Z,5.31
2023-03-11T11:32:26.599Z,5.49
2023-03-11T11:34:59.215Z,5.49
2023-03-11T11:37:32.365Z,5.43
2023-03-11T11:40:11.420Z,5.43
2023-03-11T11:42:42.348Z,5.31
2023-03-11T11:45:15.998Z,5.37
2023-03-11T11:47:49.613Z,5.42
2023-03-11T11:50:27.308Z,5.44
2023-03-11T11:53:04.653Z,5.53
2023-03-11T11:55:35.025Z,5.62
2023-03-11T11:58:03.436Z,5.58
2023-03-11T12:00:42.819Z,5.61
2023-03-11T12:03:31.424Z,5.68
2023-03-11T12:06:02.900Z,5.73
2023-03-11T12:08:41.103Z,5.71
2023-03-11T12:11:15.652Z,5.69
2023-03-11T12:14:00.140Z,5.74
2023-03-11T12:16:39.436Z,5.83
2023-03-11T12:19:20.141Z,5.88
2023-03-11T12:22:18.157Z,5.89
2023-03-11T12:25:03.934Z,5.94
2023-03-11T12:27:38.311Z,5.92
2023-03-11T12:30:15.850Z,5.90
2023-03-11T12:32:50.394Z,5.88
2023-03-11T12:35:24.510Z,5.85
2023-03-11T12:38:05.612Z,5.83
2023-03-11T12:41:06.752Z,5.77
2023-03-11T12:44:01.101Z,5.77
2023-03-11T12:47:03.855Z,5.84
2023-03-11T12:49:33.210Z,5.85
2023-03-11T12:52:03.291Z,5.85
2023-03-11T12:54:33.077Z,5.85
2023-03-11T12:57:05.543Z,5.86
2023-03-11T13:00:07.536Z,5.93
2023-03-11T13:02:57.566Z,6.01
2023-03-11T13:05:33.491Z,6.21
2023-03-11T13:08:10.074Z,6.42
2023-03-11T13:10:41.205Z,6.53
2023-03-11T13:13:36.147Z,6.53
2023-03-11T13:16:42.464Z,6.54
2023-03-11T13:19:43.222Z,6.47
2023-03-11T13:22:59.310Z,6.45
2023-03-11T13:25:31.938Z,6.34
2023-03-11T13:28:17.930Z,6.30
2023-03-11T13:30:55.265Z,6.36
2023-03-11T13:33:33.338Z,6.37
2023-03-11T13:36:11.050Z,6.41
2023-03-11T13:39:05.340Z,6.53
2023-03-11T13:41:36.643Z,6.63
2023-03-11T13:44:15.193Z,6.57
2023-03-11T13:46:49.834Z,6.59
2023-03-11T13:49:29.961Z,6.64
2023-03-11T13:51:59.454Z,6.61
2023-03-11T13:54:47.504Z,6.65
2023-03-11T13:57:26.581Z,6.72
2023-03-11T13:59:55.885Z,6.78
2023-03-11T14:02:27.943Z,6.76
2023-03-11T14:05:04.526Z,6.78
2023-03-11T14:07:38.535Z,6.77
2023-03-11T14:10:25.648Z,6.81
2023-03-11T14:13:07.571Z,6.85
2023-03-11T14:15:46.294Z,6.84
2023-03-11T14:18:35.580Z,6.76
2023-03-11T14:21:05.976Z,6.71
2023-03-11T14:23:37.129Z,6.69
2023-03-11T14:26:08.597Z,6.68
2023-03-11T14:28:41.555Z,6.64
2023-03-11T14:31:23.090Z,6.50
2023-03-11T14:34:04.370Z,6.45
2023-03-11T14:36:43.648Z,6.46
2023-03-11T14:39:40.104Z,6.41
2023-03-11T14:42:18.941Z,6.40
2023-03-11T14:44:52.382Z,6.37
2023-03-11T14:47:26.594Z,6.36
2023-03-11T14:49:57.240Z,6.35
2023-03-11T14:52:34.670Z,6.38
2023-03-11T14:55:05.275Z,6.39
2023-03-11T14:57:39.585Z,6.34
2023-03-11T15:00:16.764Z,6.34
2023-03-11T15:02:55.658Z,6.36
2023-03-11T15:05:32.384Z,6.36
2023-03-11T15:08:03.878Z,6.34
2023-03-11T15:10:32.645Z,6.34
2023-03-11T15:13:10.128Z,6.33
2023-03-11T15:15:38.584Z,6.32
2023-03-11T15:18:22.883Z,6.31
2023-03-11T15:21:05.736Z,6.28
2023-03-11T15:23:36.160Z,6.21
2023-03-11T15:26:06.828Z,6.16
2023-03-11T15:28:38.418Z,6.14
2023-03-11T15:31:17.153Z,6.17
2023-03-11T15:33:46.280Z,6.20
2023-03-11T15:36:33.243Z,6.23
2023-03-11T15:39:12.765Z,6.26
2023-03-11T15:41:41.261Z,6.22
2023-03-11T15:44:25.189Z,6.16
2023-03-11T15:46:54.214Z,6.18
2023-03-11T15:49:23.020Z,6.14
2023-03-11T15:51:52.791Z,6.15
2023-03-11T15:54:21.161Z,6.18
2023-03-11T15:56:49.589Z,6.20
2023-03-11T15:59:19.142Z,6.21
2023-03-11T16:01:47.628Z,6.16
2023-03-11T16:04:18.698Z,6.13
2023-03-11T16:06:56.684Z,6.10
2023-03-11T16:09:36.657Z,6.09
2023-03-11T16:12:15.144Z,6.14
2023-03-11T16:14:43.903Z,6.11
2023-03-11T16:17:14.595Z,6.11
2023-03-11T16:19:43.089Z,6.14
2023-03-11T16:22:17.594Z,6.17
2023-03-11T16:24:49.854Z,6.20
2023-03-11T16:27:19.420Z,6.22
2023-03-11T16:29:47.920Z,6.21
2023-03-11T16:32:16.394Z,6.21
2023-03-11T16:34:44.873Z,6.20
2023-03-11T16:37:16.642Z,6.19
2023-03-11T16:39:45.010Z,6.16
2023-03-11T16:42:14.996Z,6.11
2023-03-11T16:44:43.384Z,6.09
2023-03-11T16:47:11.816Z,6.06
2023-03-11T16:49:40.192Z,6.03
2023-03-11T16:52:08.811Z,6.01
2023-03-11T16:54:37.332Z,6.01
2023-03-11T16:57:08.626Z,5.96
2023-03-11T16:59:38.441Z,5.93
2023-03-11T17:02:06.893Z,5.88
2023-03-11T17:04:35.380Z,5.86
2023-03-11T17:07:03.861Z,5.83
2023-03-11T17:09:33.084Z,5.79
2023-03-11T17:12:02.419Z,5.74
2023-03-11T17:14:32.306Z,5.72
2023-03-11T17:17:02.339Z,5.72
2023-03-11T17:19:32.413Z,5.64
2023-03-11T17:22:00.738Z,5.61
2023-03-11T17:24:30.624Z,5.59
2023-03-11T17:26:59.014Z,5.58
2023-03-11T17:29:27.459Z,5.55
2023-03-11T17:31:55.804Z,5.54
2023-03-11T17:34:25.600Z,5.51
2023-03-11T17:36:53.969Z,5.53
2023-03-11T17:39:22.312Z,5.52
2023-03-11T17:41:50.789Z,5.50
2023-03-11T17:44:19.188Z,5.49
2023-03-11T17:46:47.582Z,5.48
2023-03-11T17:49:16.613Z,5.49
2023-03-11T17:51:46.429Z,5.49
2023-03-11T17:54:14.767Z,5.47
2023-03-11T17:56:43.288Z,5.45
2023-03-11T17:59:11.658Z,5.41
2023-03-11T18:01:40.099Z,5.40
2023-03-11T18:04:08.561Z,5.40
2023-03-11T18:06:37.082Z,5.38
2023-03-11T18:09:07.079Z,5.38
2023-03-11T18:11:35.667Z,5.38
2023-03-11T18:14:04.234Z,5.37
2023-03-11T18:16:33.765Z,5.38
2023-03-11T18:19:02.405Z,5.41
2023-03-11T18:21:31.800Z,5.42
2023-03-11T18:24:01.633Z,5.42
2023-03-11T18:26:32.143Z,5.42
2023-03-11T18:29:01.704Z,5.42
2023-03-11T18:31:31.867Z,5.41
2023-03-11T18:34:02.132Z,5.41
2023-03-11T18:36:32.348Z,5.40
2023-03-11T18:39:02.399Z,5.43
2023-03-11T18:41:34.836Z,5.41
2023-03-11T18:44:03.433Z,5.41
2023-03-11T18:46:33.423Z,5.41
2023-03-11T18:49:03.753Z,5.38
2023-03-11T18:51:33.300Z,5.39
2023-03-11T18:54:02.294Z,5.40
2023-03-11T18:56:32.321Z,5.39
2023-03-11T18:59:01.410Z,5.37
2023-03-11T19:01:30.605Z,5.37
2023-03-11T19:04:00.970Z,5.36
2023-03-11T19:06:36.409Z,5.36
2023-03-11T19:09:06.729Z,5.36
2023-03-11T19:11:36.511Z,5.32
2023-03-11T19:14:04.949Z,5.31
2023-03-11T19:16:33.529Z,5.27
2023-03-11T19:19:01.916Z,5.26
2023-03-11T19:21:30.445Z,5.26
2023-03-11T19:24:00.115Z,5.27
2023-03-11T19:26:43.879Z,5.24
2023-03-11T19:29:15.836Z,5.24
2023-03-11T19:31:45.303Z,5.21
2023-03-11T19:34:13.961Z,5.20
2023-03-11T19:36:42.344Z,5.19
2023-03-11T19:39:10.821Z,5.19
2023-03-11T19:41:39.284Z,5.18
2023-03-11T19:44:07.773Z,5.17
2023-03-11T19:46:37.736Z,5.16
2023-03-11T19:49:06.190Z,5.15
2023-03-11T19:51:48.581Z,5.13
2023-03-11T19:54:18.138Z,5.13
2023-03-11T19:56:46.652Z,5.13
2023-03-11T19:59:15.525Z,5.13
2023-03-11T20:01:45.296Z,5.13
2023-03-11T20:04:15.346Z,5.13
2023-03-11T20:06:44.600Z,5.12
2023-03-11T20:09:13.395Z,5.09
2023-03-11T20:11:42.113Z,5.09
2023-03-11T20:14:11.443Z,5.10
2023-03-11T20:16:40.751Z,5.08
2023-03-11T20:19:10.906Z,5.08
2023-03-11T20:21:40.778Z,5.07
2023-03-11T20:24:10.255Z,5.04
2023-03-11T20:26:39.720Z,5.05
2023-03-11T20:29:08.338Z,5.05
2023-03-11T20:31:37.412Z,5.05
2023-03-11T20:34:06.156Z,5.03
2023-03-11T20:36:36.094Z,5.01
2023-03-11T20:39:07.880Z,5.01
2023-03-11T20:41:39.695Z,5.00
2023-03-11T20:44:10.415Z,4.98
2023-03-11T20:46:39.010Z,4.96
2023-03-11T20:49:07.454Z,4.93
2023-03-11T20:51:39.087Z,4.91
2023-03-11T20:54:09.736Z,4.90
2023-03-11T20:56:38.196Z,4.90
2023-03-11T20:59:07.658Z,4.89
2023-03-11T21:01:36.554Z,4.88
2023-03-11T21:04:05.574Z,4.87
2023-03-11T21:06:36.624Z,4.86
2023-03-11T21:09:08.860Z,4.85
2023-03-11T21:11:37.251Z,4.84
2023-03-11T21:14:06.592Z,4.84
2023-03-11T21:16:35.367Z,4.83
2023-03-11T21:19:08.208Z,4.81
2023-03-11T21:21:36.956Z,4.81
2023-03-11T21:24:07.682Z,4.78
2023-03-11T21:26:36.363Z,4.74
2023-03-11T21:29:05.428Z,4.73
2023-03-11T21:31:34.171Z,4.70
2023-03-11T21:34:02.903Z,4.67
2023-03-11T21:36:31.410Z,4.65
2023-03-11T21:39:02.895Z,4.62
2023-03-11T21:41:33.401Z,4.58
2023-03-11T21:44:01.994Z,4.49
2023-03-11T21:46:32.431Z,4.41
2023-03-11T21:49:01.881Z,4.38
2023-03-11T21:51:30.630Z,4.32
2023-03-11T21:53:59.303Z,4.29
2023-03-11T21:56:28.732Z,4.30
2023-03-11T21:58:58.673Z,4.29
2023-03-11T22:01:27.459Z,4.24
2023-03-11T22:03:56.674Z,4.23
2023-03-11T22:06:25.259Z,4.23
2023-03-11T22:08:54.055Z,4.24
2023-03-11T22:11:22.718Z,4.22
2023-03-11T22:13:52.843Z,4.20
2023-03-11T22:16:26.904Z,4.17
2023-03-11T22:18:55.306Z,4.15
2023-03-11T22:21:23.711Z,4.15
2023-03-11T22:23:52.216Z,4.13
2023-03-11T22:26:20.576Z,4.05
2023-03-11T22:28:48.969Z,3.96
2023-03-11T22:31:19.110Z,3.90
2023-03-11T22:33:48.955Z,3.90
2023-03-11T22:36:17.525Z,3.91
2023-03-11T22:38:45.911Z,3.91
2023-03-11T22:41:16.758Z,3.93
2023-03-11T22:43:45.131Z,3.96
2023-03-11T22:46:13.687Z,3.99
2023-03-11T22:48:42.260Z,3.99
2023-03-11T22:51:11.983Z,3.99
2023-03-11T22:53:40.445Z,4.02
2023-03-11T22:56:11.428Z,4.03
2023-03-11T22:58:40.079Z,4.02
2023-03-11T23:01:09.306Z,4.01
2023-03-11T23:03:38.460Z,3.91
2023-03-11T23:06:10.094Z,3.83
2023-03-11T23:08:44.070Z,3.79
2023-03-11T23:11:14.661Z,3.68
2023-03-11T23:13:44.554Z,3.67
2023-03-11T23:16:15.036Z,3.68
2023-03-11T23:18:44.711Z,3.61
2023-03-11T23:21:18.001Z,3.55
2023-03-11T23:23:48.058Z,3.46
2023-03-11T23:26:17.527Z,3.42
2023-03-11T23:28:46.366Z,3.47
2023-03-11T23:31:16.787Z,3.52
2023-03-11T23:33:46.277Z,3.54
2023-03-11T23:36:16.581Z,3.55
2023-03-11T23:38:45.444Z,3.51
2023-03-11T23:41:17.258Z,3.52
2023-03-11T23:43:45.812Z,3.54
2023-03-11T23:46:15.314Z,3.57
2023-03-11T23:48:43.877Z,3.59
2023-03-11T23:51:12.464Z,3.55
2023-03-11T23:53:41.562Z,3.53
2023-03-11T23:56:11.923Z,3.51
2023-03-11T23:58:42.244Z,3.42
